Ottoman Nobility — TCDA2 — position and weather

sailwx.info

Track history (hours):
 
Tides and Currents Weather Stations Pressure Air Temp Water Temp Dewpoint Dewpoint Depression Visibility Wind Speed Wind Dir Waves Ship Positions

Ottoman Nobility

Last reported at 2015-Jul-26 09:05 UTC. Time now 2015-Jul-30 23:06 UTC.
Position N 28°52' W 015°30'.

Length 269 m; draft 8.6 m.

Type: Ship. MMSI: 271000773.

Date/timePositionNaut miles runAvg speedWind from/ knotsBaromVisibWave heightAir tempDewpointWater temp
2015-Jul-26 09:05N 28°52' W 015°30'11 2.0
2015-Jul-26 03:24N 28°56' W 015°18'490 9.6
2015-Jul-24 00:10N 34°28' W 008°14'711.7
2015-Jul-23 23:33N 34°33' W 008°08'1211.8
2015-Jul-23 22:33N 34°42' W 007°58'1211.9
2015-Jul-23 21:31N 34°51' W 007°48'1111.8
2015-Jul-23 20:33N 34°59' W 007°39'1111.5
2015-Jul-23 19:33N 35°07' W 007°29'2411.8
2015-Jul-23 17:29N 35°25' W 007°08'2312.0
2015-Jul-23 15:33N 35°42' W 006°49'1414.2
2015-Jul-23 14:33N 35°52' W 006°37'21 0.8
2015-Jul-22 12:25N 36°06' W 006°18'0 0.0
2015-Jul-20 14:10N 36°06' W 006°18'0 0.0
2015-Jul-18 23:31N 36°06' W 006°18'0 0.1
2015-Jul-18 22:31N 36°06' W 006°18'  
Track history (hours):
 
Tides and Currents Weather Stations Pressure Air Temp Water Temp Dewpoint Dewpoint Depression Visibility Wind Speed Wind Dir Waves Ship Positions

Ottoman Nobility

Last reported at 2015-Jul-26 09:05 UTC. Time now 2015-Jul-30 23:06 UTC.
Position N 28°52' W 015°30'.

Length 269 m; draft 8.6 m.

Type: Ship. MMSI: 271000773.

Date/timePositionNaut miles runAvg speedWind from/ knotsBaromVisibWave heightAir tempDewpointWater temp
2015-Jul-26 09:05N 28°52' W 015°30'11 2.0
2015-Jul-26 03:24N 28°56' W 015°18'490 9.6
2015-Jul-24 00:10N 34°28' W 008°14'711.7
2015-Jul-23 23:33N 34°33' W 008°08'1211.8
2015-Jul-23 22:33N 34°42' W 007°58'1211.9
2015-Jul-23 21:31N 34°51' W 007°48'1111.8
2015-Jul-23 20:33N 34°59' W 007°39'1111.5
2015-Jul-23 19:33N 35°07' W 007°29'2411.8
2015-Jul-23 17:29N 35°25' W 007°08'2312.0
2015-Jul-23 15:33N 35°42' W 006°49'1414.2
2015-Jul-23 14:33N 35°52' W 006°37'21 0.8
2015-Jul-22 12:25N 36°06' W 006°18'0 0.0
2015-Jul-20 14:10N 36°06' W 006°18'0 0.0
2015-Jul-18 23:31N 36°06' W 006°18'0 0.1
2015-Jul-18 22:31N 36°06' W 006°18'  

Dump ship's entire track history